Time;durP1;ratioP1;P1;durP2;ratioP2;P2;SDS_P1;SDS_P2;PMS_P1;PMS_P2;Temp;Humidity;BMP_temperature;BMP_pressure;BME280_temperature;BME280_humidity;BME280_pressure;Samples;Min_cycle;Max_cycle;Signal;HPM_P1;HPM_P2
2022/04/21 00:01:13;;;;;;;6.40;4.45;;;;;;;11.13;86.41;100248.42;1638086;87;21155;-58
2022/04/21 00:03:40;;;;;;;8.50;5.30;;;;;;;11.02;87.86;100255.94;1643884;84;21114;-59
2022/04/21 00:06:09;;;;;;;9.18;5.17;;;;;;;10.97;89.69;100260.41;1689959;84;20981;-58
2022/04/21 00:08:37;;;;;;;8.65;5.40;;;;;;;10.99;90.27;100264.16;1700930;84;21539;-62
2022/04/21 00:11:06;;;;;;;6.83;4.60;;;;;;;11.02;90.32;100263.77;1701701;84;20928;-59
2022/04/21 00:13:35;;;;;;;6.53;4.58;;;;;;;11.06;89.84;100274.13;1701015;84;22443;-57
2022/04/21 00:16:03;;;;;;;8.48;4.72;;;;;;;11.06;90.25;100276.27;1700842;84;21055;-77
2022/04/21 00:18:32;;;;;;;6.33;3.90;;;;;;;11.08;90.81;100277.37;1701129;84;21451;-60
2022/04/21 00:21:01;;;;;;;6.05;3.95;;;;;;;11.18;89.49;100272.67;1701025;84;21097;-60
2022/04/21 00:23:30;;;;;;;7.40;4.60;;;;;;;11.23;88.97;100266.38;1700990;83;21593;-75
2022/04/21 00:26:00;;;;;;;8.53;4.87;;;;;;;11.20;88.35;100261.03;1700791;84;22167;-75
2022/04/21 00:28:28;;;;;;;7.30;4.42;;;;;;;11.15;88.12;100265.21;1701463;83;22410;-61
2022/04/21 00:30:57;;;;;;;5.83;4.22;;;;;;;11.06;88.75;100268.45;1701215;83;21545;-63
2022/04/21 00:33:24;;;;;;;6.15;4.40;;;;;;;11.05;88.33;100264.70;1701810;84;21094;-76
2022/04/21 00:35:52;;;;;;;6.90;5.12;;;;;;;11.08;87.46;100268.25;1700866;84;22374;-61
2022/04/21 00:38:21;;;;;;;7.33;4.55;;;;;;;11.01;87.10;100266.88;1700953;84;21097;-61
2022/04/21 00:40:50;;;;;;;7.60;4.97;;;;;;;10.83;87.85;100268.58;1701509;84;21089;-62
2022/04/21 00:43:21;;;;;;;5.97;4.15;;;;;;;10.74;88.26;100263.68;1701093;83;21061;-59
2022/04/21 00:45:49;;;;;;;8.03;4.90;;;;;;;10.79;89.58;100267.34;1700688;84;21439;-61
2022/04/21 00:48:17;;;;;;;6.95;4.25;;;;;;;10.84;89.09;100262.40;1701498;84;21107;-59
2022/04/21 00:50:45;;;;;;;6.80;4.58;;;;;;;10.82;88.57;100265.67;1701279;84;21112;-61
2022/04/21 00:53:14;;;;;;;7.20;4.80;;;;;;;10.66;88.52;100268.00;1700942;83;21050;-58
2022/04/21 00:55:41;;;;;;;6.08;4.40;;;;;;;10.62;89.48;100260.73;1700795;84;21118;-60
2022/04/21 00:58:08;;;;;;;6.08;4.40;;;;;;;10.57;91.06;100270.42;1690559;84;21070;-59
2022/04/21 01:00:37;;;;;;;6.80;4.33;;;;;;;10.54;91.85;100262.16;1701591;84;21533;-61
2022/04/21 01:03:06;;;;;;;6.47;4.40;;;;;;;10.45;92.69;100262.73;1701651;84;21566;-62
2022/04/21 01:05:34;;;;;;;5.87;4.37;;;;;;;10.47;92.45;100268.08;1721258;83;20998;-69
2022/04/21 01:08:03;;;;;;;8.00;4.72;;;;;;;10.40;93.23;100265.08;1725090;83;21577;-58
2022/04/21 01:10:37;;;;;;;7.28;5.12;;;;;;;10.51;93.02;100262.52;1725376;83;21461;-59
2022/04/21 01:13:06;;;;;;;7.08;4.62;;;;;;;10.55;92.58;100265.87;1724873;83;21121;-75
2022/04/21 01:15:35;;;;;;;7.25;5.20;;;;;;;10.58;92.58;100267.31;1724053;82;21746;-60
2022/04/21 01:18:03;;;;;;;7.83;5.40;;;;;;;10.65;91.87;100266.89;1725136;83;20998;-60
2022/04/21 01:20:32;;;;;;;9.35;4.95;;;;;;;10.62;92.67;100277.19;1725219;83;21578;-58
2022/04/21 01:22:59;;;;;;;7.90;4.72;;;;;;;10.72;92.26;100278.21;1725484;83;21046;-59
2022/04/21 01:25:40;;;;;;;7.83;4.87;;;;;;;10.60;92.15;100279.16;1724764;83;46224;-59
2022/04/21 01:28:10;;;;;;;8.30;5.10;;;;;;;10.60;91.99;100278.34;1714417;83;20998;-58
2022/04/21 01:30:38;;;;;;;7.55;5.50;;;;;;;10.64;90.95;100279.09;1725341;83;20975;-58
2022/04/21 01:33:08;;;;;;;8.85;4.83;;;;;;;10.71;89.18;100277.87;1713487;83;21038;-69
2022/04/21 01:35:37;;;;;;;7.03;5.10;;;;;;;10.74;89.79;100285.84;1725490;83;21482;-58
2022/04/21 01:41:08;;;;;;;7.87;4.78;;;;;;;10.73;89.63;100285.03;1724893;83;21413;-59
2022/04/21 01:43:37;;;;;;;8.53;5.92;;;;;;;10.80;87.91;100279.41;1725601;83;20939;-59
2022/04/21 01:46:05;;;;;;;8.15;4.65;;;;;;;10.71;88.46;100278.68;1725252;83;20939;-74
2022/04/21 01:48:33;;;;;;;7.25;4.53;;;;;;;10.66;88.47;100286.75;1724389;82;21090;-73
2022/04/21 01:51:01;;;;;;;6.15;4.42;;;;;;;10.70;88.86;100288.00;1725192;83;21634;-58
2022/04/21 01:53:28;;;;;;;7.50;4.83;;;;;;;10.69;89.51;100299.43;1725658;83;21592;-59
2022/04/21 01:55:56;;;;;;;5.83;4.30;;;;;;;10.65;89.66;100300.78;1724788;83;21039;-74
2022/04/21 01:58:25;;;;;;;6.95;4.67;;;;;;;10.68;89.83;100301.70;1724426;83;21430;-73
2022/04/21 02:00:53;;;;;;;6.25;4.72;;;;;;;10.65;90.92;100300.78;1724761;81;21042;-58
2022/04/21 02:03:20;;;;;;;6.75;4.33;;;;;;;10.66;90.41;100301.89;1725546;83;21049;-59
2022/04/21 02:05:49;;;;;;;9.25;4.87;;;;;;;10.60;90.55;100295.29;1706161;83;21513;-61
2022/04/21 02:08:17;;;;;;;6.15;4.67;;;;;;;10.51;91.68;100290.69;1700917;84;21551;-61
2022/04/21 02:10:46;;;;;;;7.87;4.72;;;;;;;10.52;91.13;100294.09;1701842;83;21428;-61
2022/04/21 02:13:15;;;;;;;6.30;4.70;;;;;;;10.57;92.80;100302.16;1701926;84;20937;-63
2022/04/21 02:15:45;;;;;;;6.70;4.72;;;;;;;10.59;92.53;100303.61;1701675;83;21411;-61
2022/04/21 02:18:14;;;;;;;7.80;4.62;;;;;;;10.26;96.70;100303.17;1700933;84;21291;-74
2022/04/21 02:20:41;;;;;;;6.83;5.12;;;;;;;10.41;95.52;100307.88;1700647;84;21063;-59
2022/04/21 02:23:09;;;;;;;9.78;5.30;;;;;;;10.40;94.91;100311.48;1701940;83;21536;-59
2022/04/21 02:25:36;;;;;;;7.95;5.75;;;;;;;10.38;94.87;100320.46;1701193;84;20992;-59
2022/04/21 02:28:03;;;;;;;8.53;4.87;;;;;;;10.35;94.61;100320.35;1701258;84;21578;-61
2022/04/21 02:30:31;;;;;;;7.35;5.22;;;;;;;10.35;94.95;100319.55;1701577;84;22208;-60
2022/04/21 02:32:58;;;;;;;8.68;5.28;;;;;;;10.38;94.70;100320.00;1700721;84;21078;-60
2022/04/21 02:35:26;;;;;;;7.40;6.08;;;;;;;10.32;94.92;100315.49;1701685;84;21106;-58
2022/04/21 02:37:55;;;;;;;8.50;5.72;;;;;;;10.39;96.50;100316.89;1701445;84;21052;-72
2022/04/21 02:40:23;;;;;;;7.50;6.05;;;;;;;10.52;95.44;100316.25;1701575;84;21095;-68
2022/04/21 02:42:51;;;;;;;7.87;5.17;;;;;;;10.15;98.59;100314.84;1700791;84;22100;-59
2022/04/21 02:45:20;;;;;;;6.05;5.00;;;;;;;10.56;97.77;100311.78;1700921;83;21544;-63
2022/04/21 02:47:48;;;;;;;9.25;5.37;;;;;;;10.66;99.56;100309.72;1701268;84;21014;-60
2022/04/21 02:50:17;;;;;;;8.35;5.75;;;;;;;10.72;100.00;100301.67;1673865;85;21466;-67
2022/04/21 02:52:46;;;;;;;7.97;4.20;;;;;;;10.98;100.00;100299.03;1697413;84;21535;-60
2022/04/21 02:58:00;;;;;;;8.78;5.12;;;;;;;11.58;100.00;100299.91;1701092;83;21030;-60
2022/04/21 03:00:29;;;;;;;6.25;4.50;;;;;;;11.87;100.00;100292.95;1702044;84;22267;-58
2022/04/21 03:02:57;;;;;;;6.15;4.78;;;;;;;12.18;98.68;100296.45;1701923;84;21059;-58
2022/04/21 03:05:24;;;;;;;7.03;4.05;;;;;;;12.28;95.33;100304.77;1702122;83;20993;-58
2022/04/21 03:07:54;;;;;;;7.65;5.22;;;;;;;12.46;93.23;100307.34;1701137;84;21263;-74
2022/04/21 03:10:22;;;;;;;9.13;4.72;;;;;;;12.62;90.92;100306.53;1701310;84;21562;-58
2022/04/21 03:12:51;;;;;;;7.92;4.37;;;;;;;12.68;91.28;100302.31;1701399;84;21067;-60
2022/04/21 03:15:19;;;;;;;6.50;4.08;;;;;;;12.84;92.39;100307.22;1701210;84;21075;-59
2022/04/21 03:17:47;;;;;;;6.33;4.33;;;;;;;13.43;88.78;100310.98;1700864;84;21046;-63
2022/04/21 03:24:19;;;;;;;7.03;3.92;;;;;;;13.84;84.26;100314.72;1701178;84;21235;-66
2022/04/21 03:25:32;;;;;;;6.37;3.90;;;;;;;14.53;77.70;100312.08;1700451;84;21126;-70
2022/04/21 03:28:01;;;;;;;5.17;3.53;;;;;;;15.25;70.25;100311.41;1700881;84;21043;-62
2022/04/21 03:30:28;;;;;;;7.17;4.07;;;;;;;15.89;64.68;100307.42;1701540;84;21715;-61
2022/04/21 03:32:56;;;;;;;5.13;3.03;;;;;;;16.78;58.79;100302.92;1701698;84;21250;-62
2022/04/21 03:35:24;;;;;;;4.07;3.20;;;;;;;17.82;52.22;100309.70;1701174;84;21299;-75
2022/04/21 03:37:52;;;;;;;5.70;3.60;;;;;;;18.46;50.49;100303.44;1701585;83;21908;-76
2022/04/21 03:40:21;;;;;;;4.30;3.43;;;;;;;18.46;50.49;100303.44;1701474;84;21731;-60
2022/04/21 03:42:49;;;;;;;4.77;3.40;;;;;;;19.39;47.27;100299.30;1701303;84;21008;-60
2022/04/21 03:45:17;;;;;;;4.90;3.20;;;;;;;19.99;45.08;100303.93;1701368;84;21150;-76
2022/04/21 03:47:44;;;;;;;4.00;3.03;;;;;;;20.37;42.75;100307.59;1701045;84;20975;-60
2022/04/21 03:50:11;;;;;;;5.80;3.23;;;;;;;20.67;41.41;100311.16;1700643;84;21008;-60
2022/04/21 03:52:39;;;;;;;5.33;2.63;;;;;;;20.84;41.35;100308.44;1701159;84;20995;-63
2022/04/21 03:55:07;;;;;;;4.20;2.90;;;;;;;21.28;40.69;100306.97;1701510;84;20924;-62
2022/04/21 03:57:34;;;;;;;7.20;2.83;;;;;;;21.89;39.20;100307.97;1701513;84;21064;-63
2022/04/21 04:00:04;;;;;;;5.83;2.93;;;;;;;22.28;38.53;100304.50;1700864;84;21066;-62
2022/04/21 04:02:34;;;;;;;5.10;3.03;;;;;;;22.75;37.61;100288.96;1701504;83;21521;-61
2022/04/21 04:05:04;;;;;;;5.47;3.37;;;;;;;23.44;36.97;100283.70;1706331;83;20990;-59
2022/04/21 04:13:06;;;;;;;4.07;2.93;;;;;;;24.91;33.19;100278.39;1724550;83;20994;-71
2022/04/21 04:15:34;;;;;;;4.37;3.00;;;;;;;25.18;32.05;100283.27;1725329;83;21128;-57
2022/04/21 04:18:04;;;;;;;5.67;2.97;;;;;;;25.09;31.75;100285.47;1724939;83;21061;-58
2022/04/21 04:20:31;;;;;;;3.60;2.67;;;;;;;24.84;31.70;100285.89;1725213;83;21011;-58
2022/04/21 04:23:02;;;;;;;6.17;3.27;;;;;;;24.82;31.92;100289.94;1724331;83;21575;-73
2022/04/21 04:25:29;;;;;;;5.60;3.70;;;;;;;24.86;31.72;100287.77;1724953;83;21376;-57
2022/04/21 04:27:57;;;;;;;3.97;2.47;;;;;;;25.24;31.09;100292.05;1694621;83;21103;-57
2022/04/21 04:30:25;;;;;;;4.00;2.90;;;;;;;25.25;30.69;100293.63;1725097;83;20989;-73
2022/04/21 04:32:51;;;;;;;4.70;3.13;;;;;;;25.21;30.72;100288.59;1725011;83;21574;-58
2022/04/21 04:35:21;;;;;;;5.30;2.93;;;;;;;25.20;31.29;100284.34;1724348;83;21396;-59
2022/04/21 04:37:49;;;;;;;4.70;3.03;;;;;;;25.78;30.97;100288.36;1725071;83;21323;-58
2022/04/21 04:40:17;;;;;;;6.23;3.53;;;;;;;26.07;30.30;100288.85;1691585;84;21098;-60
2022/04/21 04:42:44;;;;;;;4.10;2.83;;;;;;;26.68;29.46;100290.20;1720779;83;21007;-59
2022/04/21 04:47:58;;;;;;;3.70;3.07;;;;;;;27.42;28.78;100284.23;1724968;83;21166;-71
2022/04/21 04:50:27;;;;;;;4.10;2.77;;;;;;;27.86;28.07;100282.39;1725084;83;21123;-59
2022/04/21 04:52:59;;;;;;;4.33;2.92;;;;;;;27.91;27.36;100274.79;1724900;83;21065;-68
2022/04/21 04:55:26;;;;;;;3.95;3.25;;;;;;;27.90;27.28;100270.53;1725174;83;21447;-59
2022/04/21 04:57:55;;;;;;;3.52;2.67;;;;;;;27.69;26.93;100276.78;1724898;83;21586;-73
2022/04/21 05:00:24;;;;;;;4.47;2.87;;;;;;;27.71;27.30;100282.65;1725440;83;21084;-59
2022/04/21 05:02:51;;;;;;;5.12;3.58;;;;;;;27.39;27.40;100286.98;1724968;83;21054;-69
2022/04/21 05:05:18;;;;;;;5.20;3.80;;;;;;;27.66;27.41;100286.77;1724626;83;21106;-60
2022/04/21 05:07:46;;;;;;;4.95;2.87;;;;;;;27.88;27.16;100282.90;1725354;83;21060;-59
2022/04/21 05:10:18;;;;;;;4.58;3.47;;;;;;;28.25;26.47;100280.27;1724376;83;21085;-58
2022/04/21 05:12:43;;;;;;;4.00;3.02;;;;;;;28.61;26.00;100281.67;1725086;83;22197;-58
2022/04/21 05:15:12;;;;;;;3.62;2.90;;;;;;;28.62;26.18;100277.88;1724568;83;20978;-58
2022/04/21 05:17:41;;;;;;;4.10;2.95;;;;;;;29.08;25.69;100270.90;1725086;83;21085;-59
2022/04/21 05:20:10;;;;;;;3.90;2.77;;;;;;;29.58;24.99;100277.42;1713396;83;22134;-60
2022/04/21 05:22:40;;;;;;;5.08;2.95;;;;;;;29.92;24.66;100277.87;1725064;83;20982;-69
2022/04/21 05:25:10;;;;;;;3.85;2.60;;;;;;;30.22;24.12;100285.08;1713921;83;21744;-65
2022/04/21 05:27:40;;;;;;;4.55;2.72;;;;;;;30.21;23.86;100288.09;1724724;83;20966;-64
2022/04/21 05:32:58;;;;;;;3.90;2.90;;;;;;;29.94;23.56;100297.17;1724687;83;20895;-59
2022/04/21 05:35:27;;;;;;;4.78;2.98;;;;;;;29.65;23.74;100295.00;1724857;83;21061;-71
2022/04/21 05:37:55;;;;;;;3.75;2.75;;;;;;;29.74;23.84;100303.35;1724985;83;21149;-58
2022/04/21 05:40:25;;;;;;;4.67;2.85;;;;;;;29.38;23.74;100310.17;1725304;83;21114;-72
2022/04/21 05:42:55;;;;;;;4.03;2.87;;;;;;;28.82;23.90;100307.46;1724943;83;21049;-59
2022/04/21 05:45:23;;;;;;;4.17;3.10;;;;;;;28.14;24.75;100315.86;1725434;83;20939;-65
2022/04/21 05:47:53;;;;;;;4.00;3.05;;;;;;;27.82;25.11;100311.41;1724913;83;20995;-58
2022/04/21 05:50:21;;;;;;;3.80;2.90;;;;;;;27.65;25.57;100320.80;1724674;83;22389;-70
2022/04/21 05:52:49;;;;;;;4.75;3.37;;;;;;;27.22;25.56;100320.18;1724814;83;21043;-58
2022/04/21 05:55:17;;;;;;;4.35;2.62;;;;;;;26.60;26.58;100328.84;1725472;83;21093;-57
2022/04/21 05:57:45;;;;;;;3.93;3.13;;;;;;;26.31;26.98;100323.55;1724323;81;21049;-65
2022/04/21 06:00:14;;;;;;;4.23;3.00;;;;;;;26.40;27.45;100327.99;1724923;83;21580;-71
2022/04/21 06:02:43;;;;;;;5.00;3.40;;;;;;;26.76;27.26;100328.87;1724911;83;21451;-60
2022/04/21 06:05:10;;;;;;;4.77;3.23;;;;;;;27.03;26.59;100334.10;1724706;83;20975;-64
2022/04/21 06:07:37;;;;;;;5.30;2.90;;;;;;;26.96;26.84;100337.68;1701629;83;21632;-75
2022/04/21 06:10:07;;;;;;;3.80;3.07;;;;;;;26.66;26.87;100345.05;1700692;84;21016;-75
2022/04/21 06:12:36;;;;;;;5.87;3.40;;;;;;;26.29;27.31;100339.89;1701217;84;21325;-61
2022/04/21 06:15:05;;;;;;;4.03;3.20;;;;;;;26.20;27.26;100341.58;1701372;83;21394;-57
2022/04/21 06:17:32;;;;;;;4.77;3.40;;;;;;;25.83;27.82;100339.03;1701664;84;20994;-59
2022/04/21 06:20:01;;;;;;;4.10;2.70;;;;;;;25.78;27.66;100341.76;1700504;83;20995;-59
2022/04/21 06:22:28;;;;;;;4.60;2.70;;;;;;;25.88;27.69;100340.88;1700699;84;21536;-58
2022/04/21 06:24:57;;;;;;;3.70;2.70;;;;;;;26.19;27.57;100338.66;1701080;84;21520;-57
2022/04/21 06:27:24;;;;;;;5.00;2.90;;;;;;;26.43;27.25;100336.75;1701114;84;21215;-57
2022/04/21 06:29:53;;;;;;;3.23;2.57;;;;;;;26.50;26.54;100335.09;1700318;84;21592;-58
2022/04/21 06:32:20;;;;;;;3.73;2.83;;;;;;;26.10;26.37;100337.67;1701126;84;21067;-71
2022/04/21 06:34:47;;;;;;;4.03;2.80;;;;;;;25.49;26.73;100340.38;1689760;84;20976;-58
2022/04/21 06:37:14;;;;;;;3.90;2.67;;;;;;;24.76;27.47;100347.80;1701171;84;22004;-57
2022/04/21 06:39:43;;;;;;;3.50;2.53;;;;;;;24.19;28.33;100344.55;1700820;83;21518;-65
2022/04/21 06:42:10;;;;;;;3.43;2.50;;;;;;;24.32;28.68;100341.86;1701293;84;20979;-58
2022/04/21 06:50:11;;;;;;;3.63;2.63;;;;;;;25.72;27.38;100341.51;1700635;84;20999;-59
2022/04/21 06:52:39;;;;;;;4.50;2.43;;;;;;;26.06;27.12;100338.78;1701187;84;21309;-62
2022/04/21 06:55:08;;;;;;;3.80;2.40;;;;;;;26.75;26.55;100336.65;1690282;84;21059;-62
2022/04/21 06:57:36;;;;;;;3.93;2.60;;;;;;;27.48;25.91;100332.60;1700804;84;21023;-58
2022/04/21 07:00:05;;;;;;;3.97;2.37;;;;;;;27.94;24.93;100329.67;1700127;83;21305;-58
2022/04/21 07:02:38;;;;;;;4.37;2.53;;;;;;;28.23;24.77;100330.17;1701692;83;21464;-58
2022/04/21 07:05:08;;;;;;;4.50;2.50;;;;;;;28.23;24.69;100335.53;1701132;84;21710;-60
2022/04/21 07:07:35;;;;;;;4.40;2.53;;;;;;;27.86;24.49;100349.36;1715398;83;20994;-58
2022/04/21 07:10:05;;;;;;;4.23;2.97;;;;;;;27.27;24.71;100344.72;1723951;83;20935;-70
2022/04/21 07:12:34;;;;;;;4.23;2.50;;;;;;;26.75;24.99;100344.67;1725180;83;21447;-60
2022/04/21 07:15:04;;;;;;;3.80;2.60;;;;;;;26.67;25.74;100345.32;1724785;83;21118;-65
2022/04/21 07:17:33;;;;;;;4.53;2.42;;;;;;;26.97;25.50;100348.63;1725237;83;21478;-58
2022/04/21 07:20:02;;;;;;;3.50;2.50;;;;;;;26.77;25.68;100341.15;1724419;83;21543;-58
2022/04/21 07:22:32;;;;;;;2.97;2.30;;;;;;;26.78;25.97;100333.92;1725050;83;21535;-59
2022/04/21 07:25:03;;;;;;;3.10;2.20;;;;;;;27.14;26.07;100336.36;1724436;83;21058;-58
2022/04/21 07:27:31;;;;;;;2.77;1.90;;;;;;;27.16;25.44;100329.36;1724945;83;21921;-59
2022/04/21 07:30:01;;;;;;;4.43;3.10;;;;;;;27.62;24.71;100333.98;1724464;83;21018;-57
2022/04/21 07:32:29;;;;;;;4.57;2.70;;;;;;;27.67;24.31;100319.70;1724950;83;21041;-60
2022/04/21 07:34:57;;;;;;;5.10;2.87;;;;;;;27.25;24.73;100332.19;1724648;83;21031;-67
2022/04/21 07:37:25;;;;;;;4.50;2.70;;;;;;;27.08;24.91;100328.66;1724609;83;21069;-58
2022/04/21 07:39:54;;;;;;;3.87;2.83;;;;;;;27.44;24.91;100327.59;1725131;83;20983;-67
2022/04/21 07:42:22;;;;;;;3.87;2.90;;;;;;;27.64;24.50;100325.88;1724825;83;21495;-58
2022/04/21 07:44:51;;;;;;;4.70;3.10;;;;;;;27.39;24.27;100327.14;1724685;83;21074;-68
2022/04/21 07:47:20;;;;;;;3.73;2.70;;;;;;;27.15;24.78;100335.27;1724623;83;21596;-57
2022/04/21 07:49:48;;;;;;;4.33;2.70;;;;;;;27.59;24.57;100323.85;1724954;83;21315;-64
2022/04/21 07:55:19;;;;;;;4.83;3.20;;;;;;;28.33;22.50;100317.09;1682179;83;21295;-67
2022/04/21 07:57:48;;;;;;;6.17;2.97;;;;;;;28.28;23.54;100314.52;1724758;82;20978;-58
2022/04/21 08:00:17;;;;;;;4.97;3.60;;;;;;;28.91;22.80;100316.94;1724558;82;21113;-60
2022/04/21 08:02:46;;;;;;;4.57;3.10;;;;;;;28.97;22.79;100311.69;1724673;83;21442;-58
2022/04/21 08:05:16;;;;;;;5.97;3.13;;;;;;;29.32;22.68;100304.15;1725062;83;21007;-67
2022/04/21 08:07:44;;;;;;;4.12;2.70;;;;;;;29.66;22.61;100304.08;1724625;83;21784;-57
2022/04/21 08:10:13;;;;;;;4.83;3.20;;;;;;;29.89;22.55;100308.05;1724781;83;21040;-58
2022/04/21 08:12:44;;;;;;;4.77;2.90;;;;;;;29.94;22.36;100307.37;1724305;83;20895;-59
2022/04/21 08:15:14;;;;;;;5.00;3.07;;;;;;;29.80;21.61;100300.75;1724606;83;21498;-59
2022/04/21 08:17:42;;;;;;;4.83;3.22;;;;;;;29.35;21.49;100305.41;1724201;81;21113;-65
2022/04/21 08:20:11;;;;;;;4.57;2.80;;;;;;;28.77;22.15;100305.70;1724811;83;21248;-59
2022/04/21 08:22:39;;;;;;;4.40;2.90;;;;;;;28.70;22.24;100302.64;1724359;83;21481;-60
2022/04/21 08:33:28;;;;;;;4.17;2.40;;;;;;;28.13;22.74;100309.72;1724694;83;21051;-58
2022/04/21 08:35:58;;;;;;;4.13;2.90;;;;;;;27.98;22.23;100311.91;1725333;83;21591;-58
2022/04/21 08:38:28;;;;;;;3.70;2.33;;;;;;;27.92;22.25;100310.41;1724566;82;21018;-58
2022/04/21 08:40:58;;;;;;;5.73;2.60;;;;;;;27.72;22.26;100310.22;1725022;83;21349;-58
2022/04/21 08:43:28;;;;;;;4.20;2.70;;;;;;;27.33;22.26;100318.14;1724624;83;21516;-58
2022/04/21 08:45:56;;;;;;;4.87;2.93;;;;;;;26.88;22.80;100312.38;1724992;83;21126;-61
2022/04/21 08:48:24;;;;;;;3.43;2.20;;;;;;;26.48;23.80;100303.05;1724856;83;21108;-58
2022/04/21 08:50:52;;;;;;;4.07;2.53;;;;;;;26.29;23.71;100304.33;1724691;83;21077;-67
2022/04/21 08:53:22;;;;;;;4.53;2.10;;;;;;;26.61;23.87;100292.44;1724140;83;20978;-58
2022/04/21 08:55:51;;;;;;;3.50;2.20;;;;;;;26.99;23.78;100287.07;1724831;82;20962;-68
2022/04/21 08:58:20;;;;;;;4.07;2.30;;;;;;;27.42;23.01;100288.25;1724890;83;20955;-62
2022/04/21 09:00:48;;;;;;;3.77;2.30;;;;;;;27.65;23.09;100279.80;1724529;83;21049;-69
2022/04/21 09:03:16;;;;;;;2.70;2.00;;;;;;;27.53;22.30;100287.53;1724526;83;21098;-58
2022/04/21 09:05:44;;;;;;;4.23;2.10;;;;;;;27.39;22.09;100281.63;1724955;83;20939;-59
2022/04/21 09:08:23;;;;;;;3.00;1.83;;;;;;;27.07;22.28;100278.38;1710551;83;21118;-57
2022/04/21 09:11:12;;;;;;;3.55;1.82;;;;;;;26.79;22.84;100277.48;1701023;83;21003;-60
2022/04/21 09:13:42;;;;;;;3.73;2.33;;;;;;;26.35;22.92;100276.47;1700725;84;21031;-59
2022/04/21 09:16:12;;;;;;;2.90;1.72;;;;;;;26.66;23.66;100276.31;1690842;84;21035;-62
2022/04/21 09:18:43;;;;;;;3.27;1.63;;;;;;;27.06;23.73;100269.31;1700924;83;21596;-68
2022/04/21 09:21:15;;;;;;;3.67;2.13;;;;;;;27.54;23.12;100277.89;1690913;84;21599;-59
2022/04/21 09:23:44;;;;;;;2.07;1.40;;;;;;;27.62;22.26;100271.84;1701312;83;21052;-57
2022/04/21 09:26:16;;;;;;;4.50;2.20;;;;;;;27.49;22.24;100271.27;1701367;84;21070;-57
2022/04/21 09:28:56;;;;;;;3.43;1.90;;;;;;;27.37;22.80;100268.27;1700627;82;20972;-68
2022/04/21 09:31:27;;;;;;;4.33;2.20;;;;;;;27.27;22.67;100261.20;1701155;84;21400;-59
2022/04/21 09:33:56;;;;;;;4.07;2.10;;;;;;;27.60;22.77;100260.61;1701179;83;20979;-57
2022/04/21 09:36:25;;;;;;;3.47;2.30;;;;;;;28.02;22.71;100260.65;1674005;85;21222;-71
2022/04/21 09:38:59;;;;;;;7.33;2.70;;;;;;;27.93;21.95;100263.80;1673996;84;21156;-58
2022/04/21 09:41:30;;;;;;;4.47;1.70;;;;;;;27.81;21.87;100263.74;1701543;84;21105;-57
2022/04/21 09:46:07;;;;;;;4.12;1.85;;;;;;;27.98;21.33;100255.09;1701871;83;21071;-58
2022/04/21 09:46:38;;;;;;;2.67;1.80;;;;;;;28.06;21.39;100256.27;1700700;83;21104;-57
2022/04/21 09:49:06;;;;;;;3.87;1.93;;;;;;;27.73;21.52;100252.88;1679777;84;21181;-57
2022/04/21 09:51:34;;;;;;;3.70;2.13;;;;;;;27.47;21.86;100250.70;1701866;84;21039;-62
2022/04/21 09:54:04;;;;;;;2.70;1.57;;;;;;;26.82;22.57;100254.17;1701255;84;21055;-59
2022/04/21 09:56:36;;;;;;;4.50;1.63;;;;;;;26.13;22.88;100250.29;1699974;82;21063;-58
2022/04/21 09:59:08;;;;;;;3.37;1.70;;;;;;;25.71;23.82;100253.95;1701368;84;21845;-61
2022/04/21 10:01:42;;;;;;;3.17;2.03;;;;;;;25.74;23.93;100260.60;1701313;83;21108;-59
2022/04/21 10:04:09;;;;;;;3.20;1.80;;;;;;;25.53;24.21;100257.87;1700533;83;20980;-66
2022/04/21 10:06:38;;;;;;;3.87;2.10;;;;;;;25.44;24.24;100254.50;1700533;84;21015;-60
2022/04/21 10:09:08;;;;;;;3.10;1.80;;;;;;;25.60;24.28;100254.34;1700865;83;21126;-59
2022/04/21 10:11:38;;;;;;;3.47;1.50;;;;;;;26.00;23.97;100251.00;1700960;84;21043;-61
2022/04/21 10:14:06;;;;;;;2.73;1.50;;;;;;;26.12;23.39;100254.84;1699846;84;21893;-60
2022/04/21 10:16:35;;;;;;;5.03;1.77;;;;;;;26.22;23.67;100258.48;1700376;83;21059;-58
2022/04/21 10:19:02;;;;;;;3.43;2.13;;;;;;;26.20;23.42;100253.41;1700986;83;21467;-57
2022/04/21 10:21:48;;;;;;;2.20;1.33;;;;;;;25.92;23.30;100251.89;1701054;83;20980;-57
2022/04/21 10:24:26;;;;;;;3.57;1.33;;;;;;;25.75;23.43;100249.38;1691981;84;20971;-59
2022/04/21 10:26:53;;;;;;;2.90;1.30;;;;;;;26.02;23.71;100257.63;1701311;84;21177;-60
2022/04/21 10:29:23;;;;;;;3.27;1.40;;;;;;;26.16;24.16;100255.06;1701054;83;20999;-58
2022/04/21 10:32:16;;;;;;;2.73;1.60;;;;;;;26.44;23.91;100259.52;1700684;83;20975;-58
2022/04/21 10:34:46;;;;;;;3.57;1.70;;;;;;;26.71;23.59;100255.41;1759644;80;20934;-60
2022/04/21 10:37:21;;;;;;;2.37;1.47;;;;;;;27.17;23.31;100256.05;1760198;80;21046;-60
2022/04/21 10:40:09;;;;;;;3.90;1.60;;;;;;;27.37;22.47;100256.23;1753128;80;21056;-58
2022/04/21 10:42:55;;;;;;;4.93;1.63;;;;;;;27.34;22.58;100264.30;1754421;81;21523;-59
2022/04/21 10:45:32;;;;;;;3.17;1.37;;;;;;;27.06;22.42;100262.62;1759124;81;20909;-58
2022/04/21 10:48:14;;;;;;;3.40;2.00;;;;;;;26.81;23.54;100260.59;1760781;79;21588;-59
2022/04/21 10:50:45;;;;;;;2.87;1.30;;;;;;;26.87;23.44;100271.47;1752927;80;21369;-68
2022/04/21 10:59:05;;;;;;;3.43;1.77;;;;;;;26.30;23.40;100269.31;1737031;81;21096;-58
2022/04/21 11:01:34;;;;;;;7.67;4.47;;;;;;;26.02;23.62;100260.30;1752170;81;20954;-58
2022/04/21 11:04:11;;;;;;;4.20;2.55;;;;;;;25.79;23.66;100259.23;1750888;81;21095;-62
2022/04/21 11:06:47;;;;;;;2.40;1.40;;;;;;;25.42;23.69;100257.17;1759457;81;21054;-58
2022/04/21 11:09:48;;;;;;;3.10;1.60;;;;;;;25.12;23.90;100252.40;1746525;79;20956;-58
2022/04/21 11:12:20;;;;;;;2.73;1.30;;;;;;;25.03;24.18;100250.02;1750773;79;20952;-60
2022/04/21 11:14:48;;;;;;;4.20;1.87;;;;;;;25.02;24.63;100248.98;1738973;81;21047;-66
2022/04/21 11:17:18;;;;;;;4.03;1.60;;;;;;;25.03;24.80;100241.23;1761078;81;21527;-66
2022/04/21 11:19:52;;;;;;;3.67;1.40;;;;;;;25.23;24.51;100236.56;1755904;80;20946;-57
2022/04/21 11:22:39;;;;;;;3.30;1.40;;;;;;;25.49;24.08;100233.63;1755523;81;20965;-57
2022/04/21 11:25:08;;;;;;;3.17;1.77;;;;;;;25.85;24.21;100230.06;1739744;81;21904;-61
2022/04/21 11:27:42;;;;;;;3.43;2.10;;;;;;;26.15;23.92;100238.79;1754905;81;21544;-59
2022/04/21 11:30:14;;;;;;;3.93;2.00;;;;;;;25.84;23.67;100237.83;1740456;80;21048;-58
2022/04/21 11:32:52;;;;;;;6.30;2.03;;;;;;;25.19;24.41;100232.87;1752871;80;22153;-61
2022/04/21 11:35:22;;;;;;;3.77;2.00;;;;;;;24.75;24.48;100236.38;1729388;81;21030;-59
2022/04/21 11:38:00;;;;;;;4.30;2.17;;;;;;;24.20;25.11;100244.13;1768564;80;21028;-59
2022/04/21 11:40:32;;;;;;;4.70;1.90;;;;;;;23.73;25.89;100234.19;1769405;80;21640;-60
2022/04/21 11:43:08;;;;;;;4.13;2.33;;;;;;;23.42;26.02;100242.75;1768397;80;21052;-59
2022/04/21 11:45:40;;;;;;;6.23;2.13;;;;;;;23.11;25.96;100243.31;1727954;82;20985;-59
2022/04/21 11:48:13;;;;;;;6.77;2.60;;;;;;;22.74;26.55;100242.20;1728500;81;21056;-62
2022/04/21 11:50:45;;;;;;;3.83;2.23;;;;;;;22.83;26.90;100237.41;1767394;80;20882;-69
2022/04/21 11:53:18;;;;;;;4.78;2.15;;;;;;;23.34;26.20;100237.19;1768336;81;21403;-59
2022/04/21 11:55:48;;;;;;;4.60;2.13;;;;;;;23.34;26.20;100237.19;1767383;81;20984;-58
2022/04/21 11:58:34;;;;;;;5.03;2.73;;;;;;;23.55;25.93;100226.22;1768551;80;21771;-59
2022/04/21 12:06:50;;;;;;;4.23;2.47;;;;;;;24.04;25.74;100218.11;1768266;80;21660;-60
2022/04/21 12:09:19;;;;;;;5.20;3.08;;;;;;;23.83;25.43;100224.06;1769527;80;21079;-58
2022/04/21 12:11:56;;;;;;;4.50;2.53;;;;;;;23.76;25.39;100215.03;1768570;80;21871;-60
2022/04/21 12:14:24;;;;;;;5.87;2.87;;;;;;;23.76;25.49;100219.56;1768940;80;20882;-58
2022/04/21 12:17:00;;;;;;;5.37;2.40;;;;;;;23.71;25.52;100210.23;1769257;80;21491;-57
2022/04/21 12:19:41;;;;;;;4.83;2.70;;;;;;;23.62;25.25;100219.83;1769645;80;21051;-70
2022/04/21 12:22:18;;;;;;;4.92;2.72;;;;;;;23.47;25.17;100214.80;1762235;80;21079;-60
2022/04/21 12:24:54;;;;;;;6.83;3.20;;;;;;;23.48;24.98;100214.27;1768595;80;21315;-59